sensor_id;sensor_type;location;lat;lon;timestamp;pressure;altitude;pressure_sealevel;temperature;humidity
37132;BME280;23035;50.032;21.978;2022-11-13T00:05:37;66009.47;;;8.01;100.00
37132;BME280;23035;50.032;21.978;2022-11-13T00:11:03;66011.59;;;8.03;100.00
37132;BME280;23035;50.032;21.978;2022-11-13T00:16:26;65991.72;;;7.82;100.00
37132;BME280;23035;50.032;21.978;2022-11-13T00:21:48;66024.44;;;8.15;100.00
37132;BME280;23035;50.032;21.978;2022-11-13T00:27:12;66015.91;;;8.07;100.00
37132;BME280;23035;50.032;21.978;2022-11-13T00:32:35;65975.03;;;7.63;100.00
37132;BME280;23035;50.032;21.978;2022-11-13T00:37:58;65977.91;;;7.71;100.00
37132;BME280;23035;50.032;21.978;2022-11-13T00:43:22;65939.47;;;7.37;100.00
37132;BME280;23035;50.032;21.978;2022-11-13T00:48:45;66054.03;;;8.46;100.00
37132;BME280;23035;50.032;21.978;2022-11-13T00:54:08;66050.53;;;8.35;100.00
37132;BME280;23035;50.032;21.978;2022-11-13T00:59:32;66185.78;;;9.71;100.00
37132;BME280;23035;50.032;21.978;2022-11-13T01:04:55;66070.00;;;8.58;100.00
37132;BME280;23035;50.032;21.978;2022-11-13T01:10:18;66126.84;;;9.15;100.00
37132;BME280;23035;50.032;21.978;2022-11-13T01:15:43;65991.28;;;7.84;100.00
37132;BME280;23035;50.032;21.978;2022-11-13T01:21:09;65997.63;;;7.87;100.00
37132;BME280;23035;50.032;21.978;2022-11-13T01:26:33;66032.47;;;8.23;100.00
37132;BME280;23035;50.032;21.978;2022-11-13T01:31:57;65977.81;;;7.68;100.00
37132;BME280;23035;50.032;21.978;2022-11-13T01:37:19;65964.53;;;7.58;100.00
37132;BME280;23035;50.032;21.978;2022-11-13T01:42:42;65991.19;;;7.81;100.00
37132;BME280;23035;50.032;21.978;2022-11-13T01:48:10;66020.72;;;8.12;100.00
37132;BME280;23035;50.032;21.978;2022-11-13T01:53:34;66177.66;;;9.61;100.00
37132;BME280;23035;50.032;21.978;2022-11-13T01:59:02;66099.44;;;8.86;100.00
37132;BME280;23035;50.032;21.978;2022-11-13T02:04:27;66058.66;;;8.45;100.00
37132;BME280;23035;50.032;21.978;2022-11-13T02:09:53;65987.44;;;7.78;100.00
37132;BME280;23035;50.032;21.978;2022-11-13T02:15:18;66052.16;;;8.37;100.00
37132;BME280;23035;50.032;21.978;2022-11-13T02:20:50;66070.59;;;8.61;100.00
37132;BME280;23035;50.032;21.978;2022-11-13T02:26:18;66146.13;;;9.33;100.00
37132;BME280;23035;50.032;21.978;2022-11-13T02:31:41;66047.59;;;8.40;100.00
37132;BME280;23035;50.032;21.978;2022-11-13T02:37:04;65991.72;;;7.82;100.00
37132;BME280;23035;50.032;21.978;2022-11-13T02:42:29;65973.34;;;7.59;100.00
37132;BME280;23035;50.032;21.978;2022-11-13T02:47:52;65905.69;;;7.02;100.00
37132;BME280;23035;50.032;21.978;2022-11-13T02:53:15;66030.44;;;8.23;100.00
37132;BME280;23035;50.032;21.978;2022-11-13T02:58:40;66030.72;;;8.16;100.00
37132;BME280;23035;50.032;21.978;2022-11-13T03:04:03;65934.56;;;7.30;100.00
37132;BME280;23035;50.032;21.978;2022-11-13T03:09:27;65951.78;;;7.48;100.00
37132;BME280;23035;50.032;21.978;2022-11-13T03:14:51;65967.13;;;7.58;100.00
37132;BME280;23035;50.032;21.978;2022-11-13T03:20:15;65947.84;;;7.40;100.00
37132;BME280;23035;50.032;21.978;2022-11-13T03:25:39;65950.88;;;7.38;100.00
37132;BME280;23035;50.032;21.978;2022-11-13T03:31:04;65938.50;;;7.38;100.00
37132;BME280;23035;50.032;21.978;2022-11-13T03:36:27;66034.72;;;8.27;100.00
37132;BME280;23035;50.032;21.978;2022-11-13T03:41:49;66082.38;;;8.73;100.00
37132;BME280;23035;50.032;21.978;2022-11-13T03:47:14;65993.25;;;7.81;100.00
37132;BME280;23035;50.032;21.978;2022-11-13T03:52:38;65983.69;;;7.74;100.00
37132;BME280;23035;50.032;21.978;2022-11-13T03:58:01;66104.78;;;8.91;100.00
37132;BME280;23035;50.032;21.978;2022-11-13T04:03:25;66066.34;;;8.57;100.00
37132;BME280;23035;50.032;21.978;2022-11-13T04:08:48;65950.06;;;7.44;100.00
37132;BME280;23035;50.032;21.978;2022-11-13T04:14:11;66004.13;;;7.96;100.00
37132;BME280;23035;50.032;21.978;2022-11-13T04:19:35;66079.53;;;8.65;100.00
37132;BME280;23035;50.032;21.978;2022-11-13T04:24:58;66120.88;;;9.07;100.00
37132;BME280;23035;50.032;21.978;2022-11-13T04:30:20;66084.00;;;8.74;100.00
37132;BME280;23035;50.032;21.978;2022-11-13T04:35:44;66053.38;;;8.43;100.00
37132;BME280;23035;50.032;21.978;2022-11-13T04:41:11;66016.34;;;8.05;100.00
37132;BME280;23035;50.032;21.978;2022-11-13T04:46:51;65991.28;;;7.84;100.00
37132;BME280;23035;50.032;21.978;2022-11-13T04:52:16;66028.28;;;8.21;100.00
37132;BME280;23035;50.032;21.978;2022-11-13T04:57:39;66154.53;;;9.36;100.00
37132;BME280;23035;50.032;21.978;2022-11-13T05:03:02;66051.78;;;8.41;100.00
37132;BME280;23035;50.032;21.978;2022-11-13T05:08:25;65963.47;;;7.57;100.00
37132;BME280;23035;50.032;21.978;2022-11-13T05:13:49;65966.22;;;7.62;100.00
37132;BME280;23035;50.032;21.978;2022-11-13T05:19:11;66018.56;;;8.10;100.00
37132;BME280;23035;50.032;21.978;2022-11-13T05:24:35;66096.66;;;8.81;100.00
37132;BME280;23035;50.032;21.978;2022-11-13T05:29:58;66020.78;;;8.14;100.00
37132;BME280;23035;50.032;21.978;2022-11-13T05:35:20;66093.63;;;8.83;100.00
37132;BME280;23035;50.032;21.978;2022-11-13T05:40:44;66136.94;;;9.22;100.00
37132;BME280;23035;50.032;21.978;2022-11-13T05:46:08;66135.78;;;9.18;100.00
37132;BME280;23035;50.032;21.978;2022-11-13T05:51:33;66265.59;;;10.44;100.00
37132;BME280;23035;50.032;21.978;2022-11-13T05:56:57;66213.66;;;9.97;100.00
37132;BME280;23035;50.032;21.978;2022-11-13T06:02:20;66157.94;;;9.44;100.00
37132;BME280;23035;50.032;21.978;2022-11-13T06:07:43;66135.31;;;9.20;100.00
37132;BME280;23035;50.032;21.978;2022-11-13T06:13:07;66067.75;;;8.54;100.00
37132;BME280;23035;50.032;21.978;2022-11-13T06:18:30;66112.28;;;8.99;100.00
37132;BME280;23035;50.032;21.978;2022-11-13T06:23:57;66181.50;;;9.67;100.00
37132;BME280;23035;50.032;21.978;2022-11-13T06:29:21;66173.91;;;9.57;100.00
37132;BME280;23035;50.032;21.978;2022-11-13T06:34:44;66076.84;;;8.62;100.00
37132;BME280;23035;50.032;21.978;2022-11-13T06:40:08;66038.19;;;8.23;100.00
37132;BME280;23035;50.032;21.978;2022-11-13T06:45:32;66130.50;;;9.16;100.00
37132;BME280;23035;50.032;21.978;2022-11-13T06:50:54;66185.63;;;9.66;100.00
37132;BME280;23035;50.032;21.978;2022-11-13T06:56:22;66196.59;;;9.84;100.00
37132;BME280;23035;50.032;21.978;2022-11-13T07:01:49;66130.50;;;9.16;100.00
37132;BME280;23035;50.032;21.978;2022-11-13T07:07:12;66111.69;;;8.96;100.00
37132;BME280;23035;50.032;21.978;2022-11-13T07:12:35;66086.16;;;8.76;100.00
37132;BME280;23035;50.032;21.978;2022-11-13T07:18:00;66181.84;;;9.62;100.00
37132;BME280;23035;50.032;21.978;2022-11-13T07:23:23;66185.16;;;9.68;100.00
37132;BME280;23035;50.032;21.978;2022-11-13T07:28:46;66132.13;;;9.17;100.00
37132;BME280;23035;50.032;21.978;2022-11-13T07:34:10;66228.03;;;10.09;100.00
37132;BME280;23035;50.032;21.978;2022-11-13T07:39:34;66224.28;;;10.05;100.00
37132;BME280;23035;50.032;21.978;2022-11-13T07:44:57;66119.81;;;9.06;100.00
37132;BME280;23035;50.032;21.978;2022-11-13T07:50:21;66185.16;;;9.68;100.00
37132;BME280;23035;50.032;21.978;2022-11-13T07:55:44;66224.38;;;10.07;100.00
37132;BME280;23035;50.032;21.978;2022-11-13T08:01:07;66160.94;;;9.42;100.00
37132;BME280;23035;50.032;21.978;2022-11-13T08:06:31;66147.75;;;9.35;100.00
37132;BME280;23035;50.032;21.978;2022-11-13T08:11:53;66185.63;;;9.66;100.00
37132;BME280;23035;50.032;21.978;2022-11-13T08:17:16;66189.97;;;9.72;100.00
37132;BME280;23035;50.032;21.978;2022-11-13T08:22:39;66224.28;;;10.05;100.00
37132;BME280;23035;50.032;21.978;2022-11-13T08:28:02;66204.28;;;9.81;100.00
37132;BME280;23035;50.032;21.978;2022-11-13T08:33:33;66188.28;;;9.68;100.00
37132;BME280;23035;50.032;21.978;2022-11-13T08:38:57;66162.81;;;9.52;100.00
37132;BME280;23035;50.032;21.978;2022-11-13T08:44:19;66149.69;;;9.32;100.00
37132;BME280;23035;50.032;21.978;2022-11-13T08:49:42;66046.84;;;8.34;100.00
37132;BME280;23035;50.032;21.978;2022-11-13T08:55:07;66099.88;;;8.84;100.00
37132;BME280;23035;50.032;21.978;2022-11-13T09:00:30;66199.00;;;9.78;100.00
37132;BME280;23035;50.032;21.978;2022-11-13T09:05:54;66123.47;;;9.07;100.00
37132;BME280;23035;50.032;21.978;2022-11-13T09:11:18;66135.84;;;9.21;100.00
37132;BME280;23035;50.032;21.978;2022-11-13T09:16:41;66126.75;;;9.12;100.00
37132;BME280;23035;50.032;21.978;2022-11-13T09:22:03;66198.09;;;9.83;100.00
37132;BME280;23035;50.032;21.978;2022-11-13T09:27:28;66165.25;;;9.46;100.00
37132;BME280;23035;50.032;21.978;2022-11-13T09:32:52;66187.47;;;9.75;100.00
37132;BME280;23035;50.032;21.978;2022-11-13T09:38:15;66267.19;;;10.46;100.00
37132;BME280;23035;50.032;21.978;2022-11-13T09:43:42;66317.09;;;10.93;100.00
37132;BME280;23035;50.032;21.978;2022-11-13T09:49:13;66318.09;;;10.91;100.00
37132;BME280;23035;50.032;21.978;2022-11-13T09:54:37;66336.31;;;11.09;100.00
37132;BME280;23035;50.032;21.978;2022-11-13T10:00:05;66387.94;;;11.60;100.00
37132;BME280;23035;50.032;21.978;2022-11-13T10:05:36;66340.22;;;11.17;100.00
37132;BME280;23035;50.032;21.978;2022-11-13T10:11:07;66283.28;;;10.61;100.00
37132;BME280;23035;50.032;21.978;2022-11-13T10:16:35;66120.41;;;9.09;100.00
37132;BME280;23035;50.032;21.978;2022-11-13T10:22:04;66215.72;;;9.97;100.00
37132;BME280;23035;50.032;21.978;2022-11-13T10:27:54;66273.00;;;10.49;100.00
37132;BME280;23035;50.032;21.978;2022-11-13T10:33:21;66239.84;;;10.20;100.00
37132;BME280;23035;50.032;21.978;2022-11-13T10:38:46;66283.47;;;10.66;100.00
37132;BME280;23035;50.032;21.978;2022-11-13T10:44:19;66256.56;;;10.38;100.00
37132;BME280;23035;50.032;21.978;2022-11-13T10:49:43;66286.78;;;10.72;100.00
37132;BME280;23035;50.032;21.978;2022-11-13T10:55:16;66289.72;;;10.67;100.00
37132;BME280;23035;50.032;21.978;2022-11-13T11:00:42;66352.56;;;11.29;100.00
37132;BME280;23035;50.032;21.978;2022-11-13T11:06:10;66291.34;;;10.69;100.00
37132;BME280;23035;50.032;21.978;2022-11-13T11:11:33;66314.94;;;10.91;100.00
37132;BME280;23035;50.032;21.978;2022-11-13T11:17:11;66347.13;;;11.22;100.00
37132;BME280;23035;50.032;21.978;2022-11-13T11:22:37;66299.38;;;10.76;100.00
37132;BME280;23035;50.032;21.978;2022-11-13T11:28:06;66240.50;;;10.23;100.00
37132;BME280;23035;50.032;21.978;2022-11-13T11:33:35;66301.53;;;10.78;100.00
37132;BME280;23035;50.032;21.978;2022-11-13T11:39:01;66408.22;;;11.77;100.00
37132;BME280;23035;50.032;21.978;2022-11-13T11:44:32;66379.41;;;11.55;100.00
37132;BME280;23035;50.032;21.978;2022-11-13T11:49:59;66428.09;;;11.96;100.00
37132;BME280;23035;50.032;21.978;2022-11-13T11:55:45;66369.81;;;11.48;100.00
37132;BME280;23035;50.032;21.978;2022-11-13T12:01:17;66371.34;;;11.47;100.00
37132;BME280;23035;50.032;21.978;2022-11-13T12:06:52;66336.94;;;11.12;100.00
37132;BME280;23035;50.032;21.978;2022-11-13T12:12:21;66355.63;;;11.27;100.00
37132;BME280;23035;50.032;21.978;2022-11-13T12:17:56;66425.06;;;11.98;100.00
37132;BME280;23035;50.032;21.978;2022-11-13T12:23:29;66370.28;;;11.46;100.00
37132;BME280;23035;50.032;21.978;2022-11-13T12:29:04;66480.28;;;12.48;100.00
37132;BME280;23035;50.032;21.978;2022-11-13T12:34:34;66396.41;;;11.66;100.00
37132;BME280;23035;50.032;21.978;2022-11-13T12:40:04;66421.13;;;11.89;100.00
37132;BME280;23035;50.032;21.978;2022-11-13T12:45:48;66429.97;;;12.05;100.00
37132;BME280;23035;50.032;21.978;2022-11-13T12:51:13;66436.25;;;12.06;100.00
37132;BME280;23035;50.032;21.978;2022-11-13T12:56:36;66408.97;;;11.83;100.00
37132;BME280;23035;50.032;21.978;2022-11-13T13:02:14;66404.09;;;11.78;100.00
37132;BME280;23035;50.032;21.978;2022-11-13T13:08:00;66352.50;;;11.27;100.00
37132;BME280;23035;50.032;21.978;2022-11-13T13:13:30;66240.28;;;10.18;100.00
37132;BME280;23035;50.032;21.978;2022-11-13T13:19:22;66218.84;;;9.97;100.00
37132;BME280;23035;50.032;21.978;2022-11-13T13:24:57;66295.72;;;10.75;100.00
37132;BME280;23035;50.032;21.978;2022-11-13T13:30:22;66203.56;;;9.90;100.00
37132;BME280;23035;50.032;21.978;2022-11-13T13:35:53;66217.25;;;9.96;100.00
37132;BME280;23035;50.032;21.978;2022-11-13T13:41:27;66215.63;;;9.94;100.00
37132;BME280;23035;50.032;21.978;2022-11-13T13:46:55;66299.38;;;10.76;100.00
37132;BME280;23035;50.032;21.978;2022-11-13T13:52:24;66282.31;;;10.62;100.00
37132;BME280;23035;50.032;21.978;2022-11-13T13:57:48;66346.69;;;11.24;100.00
37132;BME280;23035;50.032;21.978;2022-11-13T14:03:18;66369.03;;;11.40;100.00
37132;BME280;23035;50.032;21.978;2022-11-13T14:08:43;66351.41;;;11.26;100.00
37132;BME280;23035;50.032;21.978;2022-11-13T14:14:07;66311.72;;;10.88;100.00
37132;BME280;23035;50.032;21.978;2022-11-13T14:19:31;66274.25;;;10.55;100.00
37132;BME280;23035;50.032;21.978;2022-11-13T14:24:57;66227.59;;;10.11;100.00
37132;BME280;23035;50.032;21.978;2022-11-13T14:30:24;66215.78;;;9.99;100.00
37132;BME280;23035;50.032;21.978;2022-11-13T14:35:51;66238.22;;;10.18;100.00
37132;BME280;23035;50.032;21.978;2022-11-13T14:41:21;66229.03;;;10.07;100.00
37132;BME280;23035;50.032;21.978;2022-11-13T14:46:44;66241.88;;;10.19;100.00
37132;BME280;23035;50.032;21.978;2022-11-13T14:52:19;66182.56;;;9.68;100.00
37132;BME280;23035;50.032;21.978;2022-11-13T14:57:47;66201.88;;;9.86;100.00
37132;BME280;23035;50.032;21.978;2022-11-13T15:03:10;66210.88;;;9.92;100.00
37132;BME280;23035;50.032;21.978;2022-11-13T15:08:33;66158.81;;;9.40;100.00
37132;BME280;23035;50.032;21.978;2022-11-13T15:13:57;66178.09;;;9.59;100.00
37132;BME280;23035;50.032;21.978;2022-11-13T15:19:29;66237.69;;;10.18;100.00
37132;BME280;23035;50.032;21.978;2022-11-13T15:24:54;66195.88;;;9.78;100.00
37132;BME280;23035;50.032;21.978;2022-11-13T15:30:19;66210.88;;;9.92;100.00
37132;BME280;23035;50.032;21.978;2022-11-13T15:35:42;66210.44;;;9.94;100.00
37132;BME280;23035;50.032;21.978;2022-11-13T15:41:09;66102.19;;;8.91;100.00
37132;BME280;23035;50.032;21.978;2022-11-13T15:46:34;66199.72;;;9.84;100.00
37132;BME280;23035;50.032;21.978;2022-11-13T15:51:57;66134.72;;;9.17;100.00
37132;BME280;23035;50.032;21.978;2022-11-13T15:57:21;66094.09;;;8.81;100.00
37132;BME280;23035;50.032;21.978;2022-11-13T16:02:45;66054.44;;;8.44;100.00
37132;BME280;23035;50.032;21.978;2022-11-13T16:08:11;66141.31;;;9.29;100.00
37132;BME280;23035;50.032;21.978;2022-11-13T16:13:34;66137.56;;;9.25;100.00
37132;BME280;23035;50.032;21.978;2022-11-13T16:18:58;66204.38;;;9.84;100.00
37132;BME280;23035;50.032;21.978;2022-11-13T16:24:21;66256.94;;;10.33;100.00
37132;BME280;23035;50.032;21.978;2022-11-13T16:29:44;66204.38;;;9.84;100.00
37132;BME280;23035;50.032;21.978;2022-11-13T16:35:11;66153.00;;;9.37;100.00
37132;BME280;23035;50.032;21.978;2022-11-13T16:40:34;66170.16;;;9.54;100.00
37132;BME280;23035;50.032;21.978;2022-11-13T16:45:58;66183.38;;;9.61;100.00
37132;BME280;23035;50.032;21.978;2022-11-13T16:51:22;66158.47;;;9.45;100.00
37132;BME280;23035;50.032;21.978;2022-11-13T16:56:45;66264.00;;;10.43;100.00
37132;BME280;23035;50.032;21.978;2022-11-13T17:02:12;66269.00;;;10.52;100.00
37132;BME280;23035;50.032;21.978;2022-11-13T17:07:37;66317.00;;;10.90;100.00
37132;BME280;23035;50.032;21.978;2022-11-13T17:13:00;66290.72;;;10.66;100.00
37132;BME280;23035;50.032;21.978;2022-11-13T17:18:22;66274.09;;;10.50;100.00
37132;BME280;23035;50.032;21.978;2022-11-13T17:23:46;66249.97;;;10.27;100.00
37132;BME280;23035;50.032;21.978;2022-11-13T17:29:08;66312.16;;;10.86;100.00
37132;BME280;23035;50.032;21.978;2022-11-13T17:34:30;66255.31;;;10.32;100.00
37132;BME280;23035;50.032;21.978;2022-11-13T17:39:54;66221.16;;;10.04;100.00
37132;BME280;23035;50.032;21.978;2022-11-13T17:45:17;66248.44;;;10.28;100.00
37132;BME280;23035;50.032;21.978;2022-11-13T17:50:40;66237.59;;;10.15;100.00
37132;BME280;23035;50.032;21.978;2022-11-13T17:56:05;66228.56;;;10.09;100.00
37132;BME280;23035;50.032;21.978;2022-11-13T18:01:28;66220.63;;;10.04;100.00
37132;BME280;23035;50.032;21.978;2022-11-13T18:06:53;66238.75;;;10.19;100.00
37132;BME280;23035;50.032;21.978;2022-11-13T18:12:17;66271.59;;;10.52;100.00
37132;BME280;23035;50.032;21.978;2022-11-13T18:17:40;66280.06;;;10.58;100.00
37132;BME280;23035;50.032;21.978;2022-11-13T18:23:03;66255.31;;;10.32;100.00
37132;BME280;23035;50.032;21.978;2022-11-13T18:28:27;66214.19;;;9.98;100.00
37132;BME280;23035;50.032;21.978;2022-11-13T18:33:50;66224.38;;;10.07;100.00
37132;BME280;23035;50.032;21.978;2022-11-13T18:39:12;66219.91;;;9.98;100.00
37132;BME280;23035;50.032;21.978;2022-11-13T18:44:38;66177.66;;;9.61;100.00
37132;BME280;23035;50.032;21.978;2022-11-13T18:50:01;66205.06;;;9.89;100.00
37132;BME280;23035;50.032;21.978;2022-11-13T18:55:23;66187.66;;;9.65;100.00
37132;BME280;23035;50.032;21.978;2022-11-13T19:00:47;66216.88;;;10.00;100.00
37132;BME280;23035;50.032;21.978;2022-11-13T19:06:11;66213.56;;;9.95;100.00
37132;BME280;23035;50.032;21.978;2022-11-13T19:11:34;66154.25;;;9.43;100.00
37132;BME280;23035;50.032;21.978;2022-11-13T19:16:59;66199.28;;;9.86;100.00
37132;BME280;23035;50.032;21.978;2022-11-13T19:22:21;66131.13;;;9.19;100.00
37132;BME280;23035;50.032;21.978;2022-11-13T19:27:44;66185.16;;;9.68;100.00
37132;BME280;23035;50.032;21.978;2022-11-13T19:33:08;66224.81;;;10.05;100.00
37132;BME280;23035;50.032;21.978;2022-11-13T19:38:30;66207.13;;;9.89;100.00
37132;BME280;23035;50.032;21.978;2022-11-13T19:43:53;66170.06;;;9.51;100.00
37132;BME280;23035;50.032;21.978;2022-11-13T19:49:17;66180.88;;;9.64;100.00
37132;BME280;23035;50.032;21.978;2022-11-13T19:54:40;66202.75;;;9.82;100.00
37132;BME280;23035;50.032;21.978;2022-11-13T20:00:03;66118.28;;;9.07;100.00
37132;BME280;23035;50.032;21.978;2022-11-13T20:05:27;66108.63;;;8.98;100.00
37132;BME280;23035;50.032;21.978;2022-11-13T20:10:50;66011.59;;;8.03;100.00
37132;BME280;23035;50.032;21.978;2022-11-13T20:16:14;66050.53;;;8.35;100.00
37132;BME280;23035;50.032;21.978;2022-11-13T20:21:39;66122.47;;;9.08;100.00
37132;BME280;23035;50.032;21.978;2022-11-13T20:27:02;66147.75;;;9.35;100.00
37132;BME280;23035;50.032;21.978;2022-11-13T20:32:24;66202.31;;;9.84;100.00
37132;BME280;23035;50.032;21.978;2022-11-13T20:37:49;66166.59;;;9.55;100.00
37132;BME280;23035;50.032;21.978;2022-11-13T20:43:11;66219.56;;;10.03;100.00
37132;BME280;23035;50.032;21.978;2022-11-13T20:48:34;66246.38;;;10.28;100.00
37132;BME280;23035;50.032;21.978;2022-11-13T20:53:58;66321.91;;;10.98;100.00
37132;BME280;23035;50.032;21.978;2022-11-13T20:59:20;66351.59;;;11.31;100.00
37132;BME280;23035;50.032;21.978;2022-11-13T21:04:43;66326.56;;;10.97;100.00
37132;BME280;23035;50.032;21.978;2022-11-13T21:10:07;66304.13;;;10.78;100.00
37132;BME280;23035;50.032;21.978;2022-11-13T21:15:30;66238.16;;;10.16;100.00
37132;BME280;23035;50.032;21.978;2022-11-13T21:21:03;66236.69;;;10.19;100.00
37132;BME280;23035;50.032;21.978;2022-11-13T21:26:28;66233.31;;;10.11;100.00
37132;BME280;23035;50.032;21.978;2022-11-13T21:31:50;66247.44;;;10.29;100.00
37132;BME280;23035;50.032;21.978;2022-11-13T21:37:13;66248.69;;;10.21;100.00
37132;BME280;23035;50.032;21.978;2022-11-13T21:42:41;66239.75;;;10.17;100.00
37132;BME280;23035;50.032;21.978;2022-11-13T21:48:05;66260.88;;;10.42;100.00
37132;BME280;23035;50.032;21.978;2022-11-13T21:53:28;66280.00;;;10.55;100.00
37132;BME280;23035;50.032;21.978;2022-11-13T21:58:54;66302.06;;;10.79;100.00
37132;BME280;23035;50.032;21.978;2022-11-13T22:04:17;66296.16;;;10.73;100.00
37132;BME280;23035;50.032;21.978;2022-11-13T22:09:39;66278.00;;;10.58;100.00
37132;BME280;23035;50.032;21.978;2022-11-13T22:15:04;66304.84;;;10.84;100.00
37132;BME280;23035;50.032;21.978;2022-11-13T22:20:28;66315.38;;;10.89;100.00
37132;BME280;23035;50.032;21.978;2022-11-13T22:25:50;66243.09;;;10.23;100.00
37132;BME280;23035;50.032;21.978;2022-11-13T22:31:22;66290.25;;;10.68;100.00
37132;BME280;23035;50.032;21.978;2022-11-13T22:36:45;66216.88;;;10.00;100.00
37132;BME280;23035;50.032;21.978;2022-11-13T22:42:08;66295.63;;;10.73;100.00
37132;BME280;23035;50.032;21.978;2022-11-13T22:47:32;66149.97;;;9.39;100.00
37132;BME280;23035;50.032;21.978;2022-11-13T22:52:58;66128.34;;;9.14;100.00
37132;BME280;23035;50.032;21.978;2022-11-13T22:58:21;66114.97;;;9.01;100.00
37132;BME280;23035;50.032;21.978;2022-11-13T23:03:46;66138.63;;;9.26;100.00
37132;BME280;23035;50.032;21.978;2022-11-13T23:09:09;66167.94;;;9.49;100.00
37132;BME280;23035;50.032;21.978;2022-11-13T23:14:32;66219.91;;;9.98;100.00
37132;BME280;23035;50.032;21.978;2022-11-13T23:19:56;66201.88;;;9.86;100.00
37132;BME280;23035;50.032;21.978;2022-11-13T23:25:19;66164.44;;;9.53;100.00
37132;BME280;23035;50.032;21.978;2022-11-13T23:30:42;66158.34;;;9.42;100.00
37132;BME280;23035;50.032;21.978;2022-11-13T23:36:08;66129.53;;;9.17;100.00
37132;BME280;23035;50.032;21.978;2022-11-13T23:41:31;66138.00;;;9.23;100.00
37132;BME280;23035;50.032;21.978;2022-11-13T23:46:54;66142.38;;;9.30;100.00
37132;BME280;23035;50.032;21.978;2022-11-13T23:52:19;66186.31;;;9.71;100.00
37132;BME280;23035;50.032;21.978;2022-11-13T23:57:42;66106.94;;;8.94;100.00
